KMCN/MCN METAR and TAF weather

Enter ICAO airport designator
Station Type Date Time Source
KMCN METAR 2019/04/25 17:53 UTC NOAA

KMCN 251753Z 21015G20KT 10SM CLR 27/13 A2991 RMK AO2 SLP126 T02720133 10272 20133 58021


Station Type Date Time Source
KMCN Decoded METAR 2019/04/25 17:53 UTC NOAA

MIDDLE GEORGIA REGIONAL AIRPORT , GA, United States (KMCN) 32-41N 83-39W 109M
Apr 25, 2019 - 01:53 PM EDT / 2019.04.25 1753 UTC
Wind: from the SSW (210 degrees) at 17 MPH (15 KT) gusting to 23 MPH (20 KT):0
Visibility: 10 mile(s):0
Sky conditions: clear
Temperature: 81.0 F (27.2 C)
Dew Point: 55.9 F (13.3 C)
Relative Humidity: 42%
Pressure (altimeter): 29.91 in. Hg (1012 hPa)
Pressure tendency: 0.06 inches (2.1 hPa) lower than three hours ago
ob: KMCN 251753Z 21015G20KT 10SM CLR 27/13 A2991 RMK AO2 SLP126 T02720133 10272 20133 58021
cycle: 18

Station Type Date Time Source
KMCN TAF 2019/04/25 18:30 UTC NOAA

TAF KMCN 251728Z 2518/2618 21010G15KT P6SM VCSH SCT120 BKN250
FM260000 20005KT P6SM BKN120
FM260400 19009KT 4SM -SHRA BKN070
FM260700 19010KT 6SM -SHRA BKN025
FM261000 22008KT P6SM -RA BKN015
FM261400 28011KT P6SM BKN007
FM261500 29013G21KT P6SM SCT020

Example: see airport list